Skip Navigation Links Skip Navigation Links

Current Weather

Joliet Regional, Joliet, Ill.

For information only: do not use for flight planning or navigation.
Latest weather
Observation time Friday, July 10, 2020 7:55 PM CDT
Local time Friday, July 10, 2020 8:14 PM CDT
Flight conditions Visual Meteorological Conditions
Winds
Wind direction Northwest (320°)
Wind speed 7 mph
Visibility 10 mi.
Sky condition
Ceiling unlimited
Sky clear
Temperature 82°F
Dewpoint 64°F
Altimeter 29.90 in.Hg
Derived measurements
Relative humidity 55%
Heat index 83°F
Density altitude 2322 ft.
Remarks
Fully automated report.
Automated weather observing station with precipitation discriminator.
METAR KJOT 110055Z AUTO 32006KT 10SM CLR 28/18 A2990 RMK AO2 T02750177

Settings

Location code

InnerDrive.Weather 4.0.6770.0 Release CLR 4.0.30319.42000
Copyright ©2018 Inner Drive Technology. All rights reserved. Portions Copyright ©1986-2018 David Braverman.

Find weather

Site navigation


Skip Navigation Links

Place info

Page info

PayPal - The safer, easier way to pay online!

Return home.

Copyright ©2020 Inner Drive Technology. Purveyors of fine, hand-crafted computer software. Page printed 2020-07-11T01:14:28 UTC.